sensor_id;sensor_type;location;lat;lon;timestamp;P1;durP1;ratioP1;P2;durP2;ratioP2
23800;SDS011;12081;48.614;10.226;2024-03-06T00:02:31;8.57;;;6.40;;
23800;SDS011;12081;48.614;10.226;2024-03-06T00:05:15;6.97;;;5.50;;
23800;SDS011;12081;48.614;10.226;2024-03-06T00:07:59;6.63;;;5.17;;
23800;SDS011;12081;48.614;10.226;2024-03-06T00:10:46;6.77;;;4.90;;
23800;SDS011;12081;48.614;10.226;2024-03-06T00:13:31;7.90;;;4.30;;
23800;SDS011;12081;48.614;10.226;2024-03-06T00:16:16;7.23;;;5.17;;
23800;SDS011;12081;48.614;10.226;2024-03-06T00:19:01;6.23;;;4.60;;
23800;SDS011;12081;48.614;10.226;2024-03-06T00:21:45;8.30;;;5.00;;
23800;SDS011;12081;48.614;10.226;2024-03-06T00:24:29;7.33;;;4.73;;
23800;SDS011;12081;48.614;10.226;2024-03-06T00:27:16;8.83;;;4.60;;
23800;SDS011;12081;48.614;10.226;2024-03-06T00:30:02;7.73;;;4.90;;
23800;SDS011;12081;48.614;10.226;2024-03-06T00:32:47;9.53;;;5.23;;
23800;SDS011;12081;48.614;10.226;2024-03-06T00:35:31;6.10;;;4.87;;
23800;SDS011;12081;48.614;10.226;2024-03-06T00:38:15;7.70;;;5.30;;
23800;SDS011;12081;48.614;10.226;2024-03-06T00:40:59;8.70;;;5.90;;
23800;SDS011;12081;48.614;10.226;2024-03-06T00:43:44;7.40;;;5.93;;
23800;SDS011;12081;48.614;10.226;2024-03-06T00:46:28;8.37;;;5.53;;
23800;SDS011;12081;48.614;10.226;2024-03-06T00:49:13;7.97;;;5.57;;
23800;SDS011;12081;48.614;10.226;2024-03-06T00:51:57;7.80;;;5.47;;
23800;SDS011;12081;48.614;10.226;2024-03-06T00:54:41;6.57;;;5.53;;
23800;SDS011;12081;48.614;10.226;2024-03-06T00:57:25;8.03;;;5.90;;
23800;SDS011;12081;48.614;10.226;2024-03-06T01:00:09;10.67;;;6.47;;
23800;SDS011;12081;48.614;10.226;2024-03-06T01:02:56;8.50;;;6.00;;
23800;SDS011;12081;48.614;10.226;2024-03-06T01:05:40;8.97;;;6.43;;
23800;SDS011;12081;48.614;10.226;2024-03-06T01:08:25;9.80;;;7.43;;
23800;SDS011;12081;48.614;10.226;2024-03-06T01:11:09;11.37;;;6.53;;
23800;SDS011;12081;48.614;10.226;2024-03-06T01:13:58;9.53;;;7.27;;
23800;SDS011;12081;48.614;10.226;2024-03-06T01:16:43;10.47;;;7.87;;
23800;SDS011;12081;48.614;10.226;2024-03-06T01:19:27;12.07;;;7.23;;
23800;SDS011;12081;48.614;10.226;2024-03-06T01:22:11;9.37;;;8.00;;
23800;SDS011;12081;48.614;10.226;2024-03-06T01:24:58;10.80;;;7.90;;
23800;SDS011;12081;48.614;10.226;2024-03-06T01:27:44;13.33;;;7.80;;
23800;SDS011;12081;48.614;10.226;2024-03-06T01:30:29;12.93;;;8.00;;
23800;SDS011;12081;48.614;10.226;2024-03-06T01:33:13;10.47;;;8.13;;
23800;SDS011;12081;48.614;10.226;2024-03-06T01:35:57;9.73;;;8.73;;
23800;SDS011;12081;48.614;10.226;2024-03-06T01:38:42;12.07;;;9.00;;
23800;SDS011;12081;48.614;10.226;2024-03-06T01:41:28;16.13;;;10.17;;
23800;SDS011;12081;48.614;10.226;2024-03-06T01:44:16;12.53;;;8.77;;
23800;SDS011;12081;48.614;10.226;2024-03-06T01:47:02;12.67;;;9.33;;
23800;SDS011;12081;48.614;10.226;2024-03-06T01:49:46;11.83;;;9.90;;
23800;SDS011;12081;48.614;10.226;2024-03-06T01:52:30;17.67;;;10.53;;
23800;SDS011;12081;48.614;10.226;2024-03-06T01:55:15;15.13;;;10.33;;
23800;SDS011;12081;48.614;10.226;2024-03-06T01:58:05;15.43;;;11.03;;
23800;SDS011;12081;48.614;10.226;2024-03-06T02:01:09;12.47;;;10.73;;
23800;SDS011;12081;48.614;10.226;2024-03-06T02:03:54;13.60;;;10.27;;
23800;SDS011;12081;48.614;10.226;2024-03-06T02:06:39;13.67;;;11.43;;
23800;SDS011;12081;48.614;10.226;2024-03-06T02:09:24;15.37;;;10.70;;
23800;SDS011;12081;48.614;10.226;2024-03-06T02:12:08;15.87;;;11.33;;
23800;SDS011;12081;48.614;10.226;2024-03-06T02:14:53;13.40;;;10.90;;
23800;SDS011;12081;48.614;10.226;2024-03-06T02:17:37;13.83;;;11.17;;
23800;SDS011;12081;48.614;10.226;2024-03-06T02:20:23;14.47;;;11.27;;
23800;SDS011;12081;48.614;10.226;2024-03-06T02:23:07;13.87;;;10.60;;
23800;SDS011;12081;48.614;10.226;2024-03-06T02:25:51;14.33;;;11.30;;
23800;SDS011;12081;48.614;10.226;2024-03-06T02:28:35;14.77;;;12.27;;
23800;SDS011;12081;48.614;10.226;2024-03-06T02:31:20;14.23;;;12.13;;
23800;SDS011;12081;48.614;10.226;2024-03-06T02:34:05;14.70;;;12.37;;
23800;SDS011;12081;48.614;10.226;2024-03-06T02:36:53;15.93;;;11.50;;
23800;SDS011;12081;48.614;10.226;2024-03-06T02:39:37;16.67;;;12.50;;
23800;SDS011;12081;48.614;10.226;2024-03-06T02:42:22;14.93;;;12.33;;
23800;SDS011;12081;48.614;10.226;2024-03-06T02:45:06;18.53;;;12.83;;
23800;SDS011;12081;48.614;10.226;2024-03-06T02:47:52;16.37;;;12.90;;
23800;SDS011;12081;48.614;10.226;2024-03-06T02:50:37;15.23;;;12.50;;
23800;SDS011;12081;48.614;10.226;2024-03-06T02:53:21;15.13;;;12.17;;
23800;SDS011;12081;48.614;10.226;2024-03-06T02:56:06;15.27;;;12.67;;
23800;SDS011;12081;48.614;10.226;2024-03-06T02:58:50;16.87;;;11.67;;
23800;SDS011;12081;48.614;10.226;2024-03-06T03:01:35;16.97;;;13.00;;
23800;SDS011;12081;48.614;10.226;2024-03-06T03:04:20;14.20;;;12.23;;
23800;SDS011;12081;48.614;10.226;2024-03-06T03:07:04;16.57;;;12.23;;
23800;SDS011;12081;48.614;10.226;2024-03-06T03:09:49;18.63;;;12.73;;
23800;SDS011;12081;48.614;10.226;2024-03-06T03:12:33;18.90;;;12.30;;
23800;SDS011;12081;48.614;10.226;2024-03-06T03:15:18;15.73;;;12.70;;
23800;SDS011;12081;48.614;10.226;2024-03-06T03:18:03;13.60;;;12.17;;
23800;SDS011;12081;48.614;10.226;2024-03-06T03:20:47;16.10;;;12.23;;
23800;SDS011;12081;48.614;10.226;2024-03-06T03:23:32;15.83;;;11.60;;
23800;SDS011;12081;48.614;10.226;2024-03-06T03:26:17;14.87;;;12.60;;
23800;SDS011;12081;48.614;10.226;2024-03-06T03:29:01;13.87;;;11.40;;
23800;SDS011;12081;48.614;10.226;2024-03-06T03:31:46;14.37;;;11.37;;
23800;SDS011;12081;48.614;10.226;2024-03-06T03:34:31;16.70;;;11.37;;
23800;SDS011;12081;48.614;10.226;2024-03-06T03:37:18;17.70;;;12.80;;
23800;SDS011;12081;48.614;10.226;2024-03-06T03:40:02;15.30;;;11.77;;
23800;SDS011;12081;48.614;10.226;2024-03-06T03:42:47;13.90;;;11.30;;
23800;SDS011;12081;48.614;10.226;2024-03-06T03:45:32;13.43;;;11.33;;
23800;SDS011;12081;48.614;10.226;2024-03-06T03:48:19;15.57;;;11.83;;
23800;SDS011;12081;48.614;10.226;2024-03-06T03:51:04;16.53;;;12.63;;
23800;SDS011;12081;48.614;10.226;2024-03-06T03:53:49;13.37;;;11.57;;
23800;SDS011;12081;48.614;10.226;2024-03-06T03:56:36;15.47;;;12.00;;
23800;SDS011;12081;48.614;10.226;2024-03-06T03:59:21;18.93;;;13.23;;
23800;SDS011;12081;48.614;10.226;2024-03-06T04:02:06;18.67;;;12.47;;
23800;SDS011;12081;48.614;10.226;2024-03-06T04:04:50;15.83;;;11.90;;
23800;SDS011;12081;48.614;10.226;2024-03-06T04:07:35;14.87;;;11.47;;
23800;SDS011;12081;48.614;10.226;2024-03-06T04:10:20;13.93;;;10.70;;
23800;SDS011;12081;48.614;10.226;2024-03-06T04:13:04;14.20;;;11.57;;
23800;SDS011;12081;48.614;10.226;2024-03-06T04:15:51;18.60;;;12.00;;
23800;SDS011;12081;48.614;10.226;2024-03-06T04:18:35;14.93;;;11.00;;
23800;SDS011;12081;48.614;10.226;2024-03-06T04:21:20;15.83;;;11.70;;
23800;SDS011;12081;48.614;10.226;2024-03-06T04:24:06;14.50;;;11.07;;
23800;SDS011;12081;48.614;10.226;2024-03-06T04:26:51;15.33;;;11.40;;
23800;SDS011;12081;48.614;10.226;2024-03-06T04:29:35;16.43;;;11.97;;
23800;SDS011;12081;48.614;10.226;2024-03-06T04:32:20;16.90;;;11.97;;
23800;SDS011;12081;48.614;10.226;2024-03-06T04:35:04;16.27;;;11.83;;
23800;SDS011;12081;48.614;10.226;2024-03-06T04:37:49;18.80;;;12.73;;
23800;SDS011;12081;48.614;10.226;2024-03-06T04:40:34;16.73;;;11.90;;
23800;SDS011;12081;48.614;10.226;2024-03-06T04:43:18;16.57;;;13.00;;
23800;SDS011;12081;48.614;10.226;2024-03-06T04:46:03;17.17;;;13.20;;
23800;SDS011;12081;48.614;10.226;2024-03-06T04:48:48;17.83;;;12.67;;
23800;SDS011;12081;48.614;10.226;2024-03-06T04:51:33;17.30;;;12.63;;
23800;SDS011;12081;48.614;10.226;2024-03-06T04:54:18;17.07;;;12.67;;
23800;SDS011;12081;48.614;10.226;2024-03-06T04:57:03;17.17;;;12.40;;
23800;SDS011;12081;48.614;10.226;2024-03-06T04:59:48;17.13;;;12.53;;
23800;SDS011;12081;48.614;10.226;2024-03-06T05:02:33;15.27;;;12.30;;
23800;SDS011;12081;48.614;10.226;2024-03-06T05:05:18;16.43;;;12.17;;
23800;SDS011;12081;48.614;10.226;2024-03-06T05:08:02;17.93;;;12.83;;
23800;SDS011;12081;48.614;10.226;2024-03-06T05:10:47;18.77;;;11.73;;
23800;SDS011;12081;48.614;10.226;2024-03-06T05:13:31;17.33;;;12.43;;
23800;SDS011;12081;48.614;10.226;2024-03-06T05:16:16;15.40;;;11.67;;
23800;SDS011;12081;48.614;10.226;2024-03-06T05:19:01;18.70;;;12.77;;
23800;SDS011;12081;48.614;10.226;2024-03-06T05:21:46;17.87;;;12.77;;
23800;SDS011;12081;48.614;10.226;2024-03-06T05:24:30;17.70;;;13.07;;
23800;SDS011;12081;48.614;10.226;2024-03-06T05:27:15;16.63;;;12.40;;
23800;SDS011;12081;48.614;10.226;2024-03-06T05:30:03;16.63;;;12.33;;
23800;SDS011;12081;48.614;10.226;2024-03-06T05:32:49;19.53;;;12.73;;
23800;SDS011;12081;48.614;10.226;2024-03-06T05:35:33;15.93;;;11.40;;
23800;SDS011;12081;48.614;10.226;2024-03-06T05:38:18;17.73;;;12.43;;
23800;SDS011;12081;48.614;10.226;2024-03-06T05:41:03;19.67;;;12.67;;
23800;SDS011;12081;48.614;10.226;2024-03-06T05:43:48;15.87;;;11.87;;
23800;SDS011;12081;48.614;10.226;2024-03-06T05:46:33;20.83;;;13.20;;
23800;SDS011;12081;48.614;10.226;2024-03-06T05:49:18;19.27;;;13.60;;
23800;SDS011;12081;48.614;10.226;2024-03-06T05:52:02;17.50;;;13.50;;
23800;SDS011;12081;48.614;10.226;2024-03-06T05:54:47;17.03;;;13.03;;
23800;SDS011;12081;48.614;10.226;2024-03-06T05:57:32;18.23;;;13.37;;
23800;SDS011;12081;48.614;10.226;2024-03-06T06:00:17;15.27;;;11.50;;
23800;SDS011;12081;48.614;10.226;2024-03-06T06:03:05;16.23;;;12.50;;
23800;SDS011;12081;48.614;10.226;2024-03-06T06:05:50;18.37;;;11.70;;
23800;SDS011;12081;48.614;10.226;2024-03-06T06:08:35;16.77;;;12.33;;
23800;SDS011;12081;48.614;10.226;2024-03-06T06:11:19;17.33;;;11.73;;
23800;SDS011;12081;48.614;10.226;2024-03-06T06:14:04;13.90;;;10.83;;
23800;SDS011;12081;48.614;10.226;2024-03-06T06:16:50;15.37;;;11.70;;
23800;SDS011;12081;48.614;10.226;2024-03-06T06:19:34;17.47;;;12.20;;
23800;SDS011;12081;48.614;10.226;2024-03-06T06:22:19;16.67;;;12.60;;
23800;SDS011;12081;48.614;10.226;2024-03-06T06:25:04;15.30;;;11.70;;
23800;SDS011;12081;48.614;10.226;2024-03-06T06:27:51;17.20;;;12.50;;
23800;SDS011;12081;48.614;10.226;2024-03-06T06:30:35;18.17;;;11.70;;
23800;SDS011;12081;48.614;10.226;2024-03-06T06:33:21;17.97;;;12.13;;
23800;SDS011;12081;48.614;10.226;2024-03-06T06:36:06;17.30;;;12.23;;
23800;SDS011;12081;48.614;10.226;2024-03-06T06:38:51;17.57;;;12.47;;
23800;SDS011;12081;48.614;10.226;2024-03-06T06:41:36;17.23;;;11.80;;
23800;SDS011;12081;48.614;10.226;2024-03-06T06:44:21;16.33;;;12.10;;
23800;SDS011;12081;48.614;10.226;2024-03-06T06:47:05;15.37;;;11.40;;
23800;SDS011;12081;48.614;10.226;2024-03-06T06:49:50;16.13;;;11.30;;
23800;SDS011;12081;48.614;10.226;2024-03-06T06:52:35;15.47;;;11.60;;
23800;SDS011;12081;48.614;10.226;2024-03-06T06:55:19;14.63;;;11.33;;
23800;SDS011;12081;48.614;10.226;2024-03-06T06:58:06;14.90;;;11.27;;
23800;SDS011;12081;48.614;10.226;2024-03-06T07:00:51;18.03;;;12.50;;
23800;SDS011;12081;48.614;10.226;2024-03-06T07:03:35;15.37;;;11.93;;
23800;SDS011;12081;48.614;10.226;2024-03-06T07:06:20;17.30;;;12.57;;
23800;SDS011;12081;48.614;10.226;2024-03-06T07:09:05;14.77;;;11.17;;
23800;SDS011;12081;48.614;10.226;2024-03-06T07:11:53;17.80;;;12.20;;
23800;SDS011;12081;48.614;10.226;2024-03-06T07:14:37;14.57;;;11.30;;
23800;SDS011;12081;48.614;10.226;2024-03-06T07:17:22;15.73;;;11.57;;
23800;SDS011;12081;48.614;10.226;2024-03-06T07:20:07;16.77;;;11.40;;
23800;SDS011;12081;48.614;10.226;2024-03-06T07:22:52;15.10;;;11.43;;
23800;SDS011;12081;48.614;10.226;2024-03-06T07:25:37;15.20;;;11.50;;
23800;SDS011;12081;48.614;10.226;2024-03-06T07:28:21;15.80;;;10.97;;
23800;SDS011;12081;48.614;10.226;2024-03-06T07:31:06;14.27;;;11.03;;
23800;SDS011;12081;48.614;10.226;2024-03-06T07:33:51;15.00;;;11.13;;
23800;SDS011;12081;48.614;10.226;2024-03-06T07:36:38;14.07;;;10.70;;
23800;SDS011;12081;48.614;10.226;2024-03-06T07:39:22;13.50;;;10.33;;
23800;SDS011;12081;48.614;10.226;2024-03-06T07:42:07;14.07;;;10.10;;
23800;SDS011;12081;48.614;10.226;2024-03-06T07:44:52;14.33;;;9.63;;
23800;SDS011;12081;48.614;10.226;2024-03-06T07:47:36;14.33;;;10.43;;
23800;SDS011;12081;48.614;10.226;2024-03-06T07:50:21;13.47;;;9.50;;
23800;SDS011;12081;48.614;10.226;2024-03-06T07:53:05;13.37;;;10.17;;
23800;SDS011;12081;48.614;10.226;2024-03-06T07:55:50;12.50;;;9.73;;
23800;SDS011;12081;48.614;10.226;2024-03-06T07:58:34;14.43;;;9.50;;
23800;SDS011;12081;48.614;10.226;2024-03-06T08:01:19;13.53;;;9.57;;
23800;SDS011;12081;48.614;10.226;2024-03-06T08:04:04;12.53;;;9.47;;
23800;SDS011;12081;48.614;10.226;2024-03-06T08:06:48;12.57;;;9.33;;
23800;SDS011;12081;48.614;10.226;2024-03-06T08:09:32;15.70;;;10.47;;
23800;SDS011;12081;48.614;10.226;2024-03-06T08:12:16;14.37;;;9.60;;
23800;SDS011;12081;48.614;10.226;2024-03-06T08:15:01;13.17;;;9.37;;
23800;SDS011;12081;48.614;10.226;2024-03-06T08:17:47;12.20;;;9.30;;
23800;SDS011;12081;48.614;10.226;2024-03-06T08:20:33;12.97;;;9.20;;
23800;SDS011;12081;48.614;10.226;2024-03-06T08:23:17;13.47;;;9.20;;
23800;SDS011;12081;48.614;10.226;2024-03-06T08:26:01;12.80;;;9.10;;
23800;SDS011;12081;48.614;10.226;2024-03-06T08:28:45;13.20;;;8.97;;
23800;SDS011;12081;48.614;10.226;2024-03-06T08:31:29;11.40;;;8.33;;
23800;SDS011;12081;48.614;10.226;2024-03-06T08:34:14;12.97;;;8.30;;
23800;SDS011;12081;48.614;10.226;2024-03-06T08:37:00;12.73;;;8.70;;
23800;SDS011;12081;48.614;10.226;2024-03-06T08:39:44;12.43;;;8.80;;
23800;SDS011;12081;48.614;10.226;2024-03-06T08:42:29;11.03;;;8.33;;
23800;SDS011;12081;48.614;10.226;2024-03-06T08:45:13;10.97;;;8.73;;
23800;SDS011;12081;48.614;10.226;2024-03-06T08:47:58;13.70;;;8.70;;
23800;SDS011;12081;48.614;10.226;2024-03-06T08:50:42;11.07;;;8.03;;
23800;SDS011;12081;48.614;10.226;2024-03-06T08:53:26;10.80;;;7.87;;
23800;SDS011;12081;48.614;10.226;2024-03-06T08:56:11;10.87;;;8.47;;
23800;SDS011;12081;48.614;10.226;2024-03-06T08:58:55;10.73;;;8.10;;
23800;SDS011;12081;48.614;10.226;2024-03-06T09:01:40;12.03;;;8.17;;
23800;SDS011;12081;48.614;10.226;2024-03-06T09:04:24;11.20;;;7.93;;
23800;SDS011;12081;48.614;10.226;2024-03-06T09:07:08;9.07;;;6.90;;
23800;SDS011;12081;48.614;10.226;2024-03-06T09:09:53;10.70;;;7.77;;
23800;SDS011;12081;48.614;10.226;2024-03-06T09:12:37;10.27;;;7.80;;
23800;SDS011;12081;48.614;10.226;2024-03-06T09:15:22;7.93;;;6.83;;
23800;SDS011;12081;48.614;10.226;2024-03-06T09:18:06;9.17;;;7.57;;
23800;SDS011;12081;48.614;10.226;2024-03-06T09:20:50;8.97;;;6.93;;
23800;SDS011;12081;48.614;10.226;2024-03-06T09:23:35;11.47;;;7.90;;
23800;SDS011;12081;48.614;10.226;2024-03-06T09:26:21;9.43;;;6.57;;
23800;SDS011;12081;48.614;10.226;2024-03-06T09:31:53;11.37;;;7.27;;
23800;SDS011;12081;48.614;10.226;2024-03-06T09:34:37;10.57;;;7.97;;
23800;SDS011;12081;48.614;10.226;2024-03-06T09:37:21;9.20;;;7.10;;
23800;SDS011;12081;48.614;10.226;2024-03-06T09:40:05;10.47;;;7.73;;
23800;SDS011;12081;48.614;10.226;2024-03-06T09:42:51;9.90;;;7.03;;
23800;SDS011;12081;48.614;10.226;2024-03-06T09:45:35;11.67;;;8.10;;
23800;SDS011;12081;48.614;10.226;2024-03-06T09:48:20;34.77;;;25.40;;
23800;SDS011;12081;48.614;10.226;2024-03-06T09:51:05;97.97;;;52.73;;
23800;SDS011;12081;48.614;10.226;2024-03-06T09:53:49;19.10;;;13.00;;
23800;SDS011;12081;48.614;10.226;2024-03-06T09:56:35;12.63;;;9.17;;
23800;SDS011;12081;48.614;10.226;2024-03-06T09:59:19;12.93;;;9.40;;
23800;SDS011;12081;48.614;10.226;2024-03-06T10:02:03;12.20;;;9.60;;
23800;SDS011;12081;48.614;10.226;2024-03-06T10:05:23;11.90;;;8.57;;
23800;SDS011;12081;48.614;10.226;2024-03-06T10:08:08;13.90;;;9.47;;
23800;SDS011;12081;48.614;10.226;2024-03-06T10:10:52;13.20;;;10.97;;
23800;SDS011;12081;48.614;10.226;2024-03-06T10:13:37;16.83;;;11.53;;
23800;SDS011;12081;48.614;10.226;2024-03-06T10:16:21;12.57;;;9.57;;
23800;SDS011;12081;48.614;10.226;2024-03-06T10:19:15;12.97;;;9.23;;
23800;SDS011;12081;48.614;10.226;2024-03-06T10:22:03;14.13;;;8.90;;
23800;SDS011;12081;48.614;10.226;2024-03-06T10:24:54;14.23;;;9.53;;
23800;SDS011;12081;48.614;10.226;2024-03-06T10:27:42;14.00;;;9.03;;
23800;SDS011;12081;48.614;10.226;2024-03-06T10:30:26;16.10;;;9.03;;
23800;SDS011;12081;48.614;10.226;2024-03-06T10:33:10;14.07;;;9.47;;
23800;SDS011;12081;48.614;10.226;2024-03-06T10:35:55;15.00;;;9.40;;
23800;SDS011;12081;48.614;10.226;2024-03-06T10:38:41;11.37;;;8.40;;
23800;SDS011;12081;48.614;10.226;2024-03-06T10:41:27;11.17;;;8.33;;
23800;SDS011;12081;48.614;10.226;2024-03-06T10:44:16;12.60;;;9.17;;
23800;SDS011;12081;48.614;10.226;2024-03-06T10:47:05;13.17;;;9.00;;
23800;SDS011;12081;48.614;10.226;2024-03-06T10:49:53;12.43;;;8.27;;
23800;SDS011;12081;48.614;10.226;2024-03-06T10:52:39;14.40;;;9.50;;
23800;SDS011;12081;48.614;10.226;2024-03-06T10:55:24;11.37;;;8.90;;
23800;SDS011;12081;48.614;10.226;2024-03-06T10:58:09;11.53;;;8.83;;
23800;SDS011;12081;48.614;10.226;2024-03-06T11:00:53;12.97;;;10.30;;
23800;SDS011;12081;48.614;10.226;2024-03-06T11:03:41;11.13;;;8.17;;
23800;SDS011;12081;48.614;10.226;2024-03-06T11:06:26;12.77;;;8.97;;
23800;SDS011;12081;48.614;10.226;2024-03-06T11:09:10;14.57;;;10.03;;
23800;SDS011;12081;48.614;10.226;2024-03-06T11:11:58;14.33;;;9.37;;
23800;SDS011;12081;48.614;10.226;2024-03-06T11:14:42;14.97;;;9.37;;
23800;SDS011;12081;48.614;10.226;2024-03-06T11:17:26;13.67;;;9.27;;
23800;SDS011;12081;48.614;10.226;2024-03-06T11:20:18;13.37;;;9.53;;
23800;SDS011;12081;48.614;10.226;2024-03-06T11:23:03;13.03;;;9.17;;
23800;SDS011;12081;48.614;10.226;2024-03-06T11:26:00;13.53;;;9.80;;
23800;SDS011;12081;48.614;10.226;2024-03-06T11:28:47;15.10;;;11.23;;
23800;SDS011;12081;48.614;10.226;2024-03-06T11:31:35;16.13;;;9.70;;
23800;SDS011;12081;48.614;10.226;2024-03-06T11:34:19;15.70;;;9.93;;
23800;SDS011;12081;48.614;10.226;2024-03-06T11:37:06;16.57;;;11.03;;
23800;SDS011;12081;48.614;10.226;2024-03-06T11:39:52;14.70;;;10.43;;
23800;SDS011;12081;48.614;10.226;2024-03-06T11:42:45;14.47;;;10.47;;
23800;SDS011;12081;48.614;10.226;2024-03-06T11:45:32;16.83;;;11.13;;
23800;SDS011;12081;48.614;10.226;2024-03-06T11:48:28;14.57;;;9.93;;
23800;SDS011;12081;48.614;10.226;2024-03-06T11:51:12;14.73;;;10.47;;
23800;SDS011;12081;48.614;10.226;2024-03-06T11:53:56;13.00;;;9.33;;
23800;SDS011;12081;48.614;10.226;2024-03-06T11:56:41;13.77;;;9.37;;
23800;SDS011;12081;48.614;10.226;2024-03-06T12:02:16;14.30;;;9.63;;
23800;SDS011;12081;48.614;10.226;2024-03-06T12:05:01;15.63;;;10.60;;
23800;SDS011;12081;48.614;10.226;2024-03-06T12:07:50;16.13;;;10.23;;
23800;SDS011;12081;48.614;10.226;2024-03-06T12:10:37;15.27;;;9.67;;
23800;SDS011;12081;48.614;10.226;2024-03-06T12:13:22;13.97;;;9.47;;
23800;SDS011;12081;48.614;10.226;2024-03-06T12:16:07;11.37;;;8.37;;
23800;SDS011;12081;48.614;10.226;2024-03-06T12:18:55;13.23;;;9.40;;
23800;SDS011;12081;48.614;10.226;2024-03-06T12:21:42;14.50;;;9.17;;
23800;SDS011;12081;48.614;10.226;2024-03-06T12:24:30;11.43;;;9.57;;
23800;SDS011;12081;48.614;10.226;2024-03-06T12:27:14;13.33;;;9.63;;
23800;SDS011;12081;48.614;10.226;2024-03-06T12:30:09;12.63;;;10.10;;
23800;SDS011;12081;48.614;10.226;2024-03-06T12:32:59;12.37;;;8.83;;
23800;SDS011;12081;48.614;10.226;2024-03-06T12:35:47;11.03;;;7.20;;
23800;SDS011;12081;48.614;10.226;2024-03-06T12:38:31;12.83;;;8.00;;
23800;SDS011;12081;48.614;10.226;2024-03-06T12:41:16;12.20;;;8.20;;
23800;SDS011;12081;48.614;10.226;2024-03-06T12:44:00;12.33;;;8.73;;
23800;SDS011;12081;48.614;10.226;2024-03-06T12:46:46;9.83;;;7.60;;
23800;SDS011;12081;48.614;10.226;2024-03-06T12:49:31;13.57;;;8.50;;
23800;SDS011;12081;48.614;10.226;2024-03-06T12:52:16;12.63;;;8.77;;
23800;SDS011;12081;48.614;10.226;2024-03-06T12:55:00;11.43;;;8.20;;
23800;SDS011;12081;48.614;10.226;2024-03-06T12:57:45;12.27;;;8.43;;
23800;SDS011;12081;48.614;10.226;2024-03-06T13:00:29;11.90;;;8.90;;
23800;SDS011;12081;48.614;10.226;2024-03-06T13:03:13;14.53;;;9.63;;
23800;SDS011;12081;48.614;10.226;2024-03-06T13:05:57;13.97;;;9.60;;
23800;SDS011;12081;48.614;10.226;2024-03-06T13:08:43;12.90;;;9.00;;
23800;SDS011;12081;48.614;10.226;2024-03-06T13:11:27;14.03;;;9.30;;
23800;SDS011;12081;48.614;10.226;2024-03-06T13:14:11;13.03;;;9.70;;
23800;SDS011;12081;48.614;10.226;2024-03-06T13:16:55;14.47;;;9.83;;
23800;SDS011;12081;48.614;10.226;2024-03-06T13:19:39;14.40;;;10.07;;
23800;SDS011;12081;48.614;10.226;2024-03-06T13:22:23;18.40;;;13.33;;
23800;SDS011;12081;48.614;10.226;2024-03-06T13:25:07;25.80;;;18.87;;
23800;SDS011;12081;48.614;10.226;2024-03-06T13:27:51;25.40;;;14.60;;
23800;SDS011;12081;48.614;10.226;2024-03-06T13:30:35;28.33;;;16.27;;
23800;SDS011;12081;48.614;10.226;2024-03-06T13:33:21;30.43;;;17.20;;
23800;SDS011;12081;48.614;10.226;2024-03-06T13:36:07;34.83;;;18.80;;
23800;SDS011;12081;48.614;10.226;2024-03-06T13:38:52;28.87;;;17.90;;
23800;SDS011;12081;48.614;10.226;2024-03-06T13:41:36;27.83;;;18.10;;
23800;SDS011;12081;48.614;10.226;2024-03-06T13:44:20;29.57;;;19.13;;
23800;SDS011;12081;48.614;10.226;2024-03-06T13:47:04;33.53;;;18.20;;
23800;SDS011;12081;48.614;10.226;2024-03-06T13:49:48;30.50;;;19.93;;
23800;SDS011;12081;48.614;10.226;2024-03-06T13:52:32;29.13;;;18.00;;
23800;SDS011;12081;48.614;10.226;2024-03-06T13:55:17;30.13;;;18.10;;
23800;SDS011;12081;48.614;10.226;2024-03-06T13:58:02;29.90;;;18.50;;
23800;SDS011;12081;48.614;10.226;2024-03-06T14:00:46;31.43;;;18.50;;
23800;SDS011;12081;48.614;10.226;2024-03-06T14:03:31;29.83;;;17.67;;
23800;SDS011;12081;48.614;10.226;2024-03-06T14:06:17;31.60;;;20.67;;
23800;SDS011;12081;48.614;10.226;2024-03-06T14:09:01;29.70;;;18.87;;
23800;SDS011;12081;48.614;10.226;2024-03-06T14:11:45;32.80;;;19.23;;
23800;SDS011;12081;48.614;10.226;2024-03-06T14:14:29;30.20;;;18.63;;
23800;SDS011;12081;48.614;10.226;2024-03-06T14:17:13;29.43;;;18.27;;
23800;SDS011;12081;48.614;10.226;2024-03-06T14:19:57;34.03;;;20.30;;
23800;SDS011;12081;48.614;10.226;2024-03-06T14:22:41;35.10;;;19.20;;
23800;SDS011;12081;48.614;10.226;2024-03-06T14:25:25;34.90;;;20.00;;
23800;SDS011;12081;48.614;10.226;2024-03-06T14:28:09;31.97;;;19.57;;
23800;SDS011;12081;48.614;10.226;2024-03-06T14:30:53;34.20;;;20.07;;
23800;SDS011;12081;48.614;10.226;2024-03-06T14:33:40;34.40;;;18.00;;
23800;SDS011;12081;48.614;10.226;2024-03-06T14:36:25;32.23;;;17.70;;
23800;SDS011;12081;48.614;10.226;2024-03-06T14:39:09;31.90;;;18.33;;
23800;SDS011;12081;48.614;10.226;2024-03-06T14:41:54;35.07;;;20.77;;
23800;SDS011;12081;48.614;10.226;2024-03-06T14:44:39;34.07;;;20.67;;
23800;SDS011;12081;48.614;10.226;2024-03-06T14:47:23;33.37;;;19.47;;
23800;SDS011;12081;48.614;10.226;2024-03-06T14:50:07;34.30;;;19.07;;
23800;SDS011;12081;48.614;10.226;2024-03-06T14:52:51;33.67;;;21.10;;
23800;SDS011;12081;48.614;10.226;2024-03-06T14:55:35;36.77;;;20.63;;
23800;SDS011;12081;48.614;10.226;2024-03-06T14:58:19;35.57;;;19.90;;
23800;SDS011;12081;48.614;10.226;2024-03-06T15:01:03;32.63;;;18.73;;
23800;SDS011;12081;48.614;10.226;2024-03-06T15:03:48;32.97;;;19.03;;
23800;SDS011;12081;48.614;10.226;2024-03-06T15:06:32;30.57;;;17.43;;
23800;SDS011;12081;48.614;10.226;2024-03-06T15:09:16;33.47;;;18.23;;
23800;SDS011;12081;48.614;10.226;2024-03-06T15:12:05;32.33;;;17.17;;
23800;SDS011;12081;48.614;10.226;2024-03-06T15:14:50;33.80;;;18.90;;
23800;SDS011;12081;48.614;10.226;2024-03-06T15:17:35;33.23;;;19.33;;
23800;SDS011;12081;48.614;10.226;2024-03-06T15:20:22;31.43;;;19.27;;
23800;SDS011;12081;48.614;10.226;2024-03-06T15:23:06;33.57;;;17.43;;
23800;SDS011;12081;48.614;10.226;2024-03-06T15:25:50;33.40;;;19.30;;
23800;SDS011;12081;48.614;10.226;2024-03-06T15:28:34;33.07;;;19.30;;
23800;SDS011;12081;48.614;10.226;2024-03-06T15:31:18;32.10;;;18.77;;
23800;SDS011;12081;48.614;10.226;2024-03-06T15:34:03;31.17;;;18.07;;
23800;SDS011;12081;48.614;10.226;2024-03-06T15:36:47;34.07;;;18.87;;
23800;SDS011;12081;48.614;10.226;2024-03-06T15:39:31;29.73;;;18.57;;
23800;SDS011;12081;48.614;10.226;2024-03-06T15:42:15;30.63;;;17.60;;
23800;SDS011;12081;48.614;10.226;2024-03-06T15:44:59;32.57;;;18.93;;
23800;SDS011;12081;48.614;10.226;2024-03-06T15:47:43;35.23;;;23.23;;
23800;SDS011;12081;48.614;10.226;2024-03-06T15:50:29;35.50;;;19.80;;
23800;SDS011;12081;48.614;10.226;2024-03-06T15:53:13;33.67;;;19.10;;
23800;SDS011;12081;48.614;10.226;2024-03-06T15:55:57;32.40;;;17.90;;
23800;SDS011;12081;48.614;10.226;2024-03-06T15:58:41;31.90;;;18.10;;
23800;SDS011;12081;48.614;10.226;2024-03-06T16:01:25;28.27;;;18.40;;
23800;SDS011;12081;48.614;10.226;2024-03-06T16:04:09;33.57;;;18.77;;
23800;SDS011;12081;48.614;10.226;2024-03-06T16:06:54;33.43;;;17.80;;